Archival Weather

Václav Havel Intl Apt

Prague, Czechia (LKPR)

Report from: Friday, May 26, 2023 5:30 AM CEST
Current time: Sunday, July 14, 2024 12:12 PM CEST

Current weather – Weather history – Daily summaries
Weather forecast

Temperature9.0°C (48.2°F)
Wind chill8.0°C (46.4°F)
Dew point6.0°C (42.8°F)
Winds 4 kts (2.1 m/s, 4.6 mph) Northwest (320°)
Clouds Sky clear
Altimeter30.24 in.Hg (1024 mB)
Relative humidity81 %
Density altitude-947 ft. (-289 m)
Remarks Ceiling and visibility OK
No significant changes expected in the next two hours
Flight conditions Visual Meteorological Conditions
Raw dataLKPR 260330Z 32004KT CAVOK 09/06 Q1024 NOSIG
An error has occurred. This application may no longer respond until reloaded. Reload 🗙